KAIO

Atlantic Municipal Airport

Atlantic, Iowa, USA
METAR KAIO 211335Z AUTO 36007KT 10SM CLR 21/19 A3003 RMK AO2
Observed Flight Rules
Jul-21 @ 13:35 UTC (17 minutes ago) Visual Flight Rules
Wind Visibility Clouds
360° at 7 knots 10 miles
  • Clear skies
Temperatures Readings
Current 21°C / 70°F
Dewpoint 19°C / 66°F
Humidity 88%
Altimeter 30.03" Hg
Pressure 1017 hPa
Elevation 360
METAR KAIO 211335Z AUTO 36007KT 10SM CLR 21/19 A3003 RMK AO2
Observed Flight Rules
Jul-21 @ 13:35 UTC
(17 minutes ago)
VFR
Wind Visibility
360° at 7 knots 10 miles
Clouds
  • Clear skies
Temperature Dewpoint
21°C / 70°F 19°C / 66°F
Humidity Altimeter Pressure
88% 30.03" Hg 1017 hPa